sensor_id;sensor_type;location;lat;lon;timestamp;temperature;humidity
1103;DHT22;538;42.654;23.376;2023-02-25T00:00:42;7.70;52.90
1103;DHT22;538;42.654;23.376;2023-02-25T00:03:10;7.50;54.10
1103;DHT22;538;42.654;23.376;2023-02-25T00:05:39;7.50;55.80
1103;DHT22;538;42.654;23.376;2023-02-25T00:08:06;7.50;56.30
1103;DHT22;538;42.654;23.376;2023-02-25T00:10:34;7.50;56.00
1103;DHT22;538;42.654;23.376;2023-02-25T00:13:03;7.50;56.40
1103;DHT22;538;42.654;23.376;2023-02-25T00:15:30;7.50;56.90
1103;DHT22;538;42.654;23.376;2023-02-25T00:17:57;7.60;56.60
1103;DHT22;538;42.654;23.376;2023-02-25T00:20:24;7.70;55.90
1103;DHT22;538;42.654;23.376;2023-02-25T00:22:53;7.70;54.00
1103;DHT22;538;42.654;23.376;2023-02-25T00:25:20;7.60;54.20
1103;DHT22;538;42.654;23.376;2023-02-25T00:27:47;7.70;53.00
1103;DHT22;538;42.654;23.376;2023-02-25T00:30:14;7.70;51.70
1103;DHT22;538;42.654;23.376;2023-02-25T00:32:41;7.70;51.40
1103;DHT22;538;42.654;23.376;2023-02-25T00:35:08;7.60;51.50
1103;DHT22;538;42.654;23.376;2023-02-25T00:37:37;7.50;52.80
1103;DHT22;538;42.654;23.376;2023-02-25T00:40:07;7.50;54.10
1103;DHT22;538;42.654;23.376;2023-02-25T00:42:39;7.50;54.20
1103;DHT22;538;42.654;23.376;2023-02-25T00:45:08;7.60;54.10
1103;DHT22;538;42.654;23.376;2023-02-25T00:47:35;7.60;53.70
1103;DHT22;538;42.654;23.376;2023-02-25T00:50:03;7.60;54.30
1103;DHT22;538;42.654;23.376;2023-02-25T00:52:32;7.60;54.50
1103;DHT22;538;42.654;23.376;2023-02-25T00:54:58;7.60;54.30
1103;DHT22;538;42.654;23.376;2023-02-25T00:57:27;7.60;54.20
1103;DHT22;538;42.654;23.376;2023-02-25T00:59:54;7.70;54.30
1103;DHT22;538;42.654;23.376;2023-02-25T01:02:21;7.60;53.50
1103;DHT22;538;42.654;23.376;2023-02-25T01:04:48;7.60;53.20
1103;DHT22;538;42.654;23.376;2023-02-25T01:07:15;7.60;53.00
1103;DHT22;538;42.654;23.376;2023-02-25T01:09:42;7.60;53.00
1103;DHT22;538;42.654;23.376;2023-02-25T01:12:09;7.60;52.00
1103;DHT22;538;42.654;23.376;2023-02-25T01:14:37;7.60;51.20
1103;DHT22;538;42.654;23.376;2023-02-25T01:17:04;7.60;51.60
1103;DHT22;538;42.654;23.376;2023-02-25T01:19:34;7.60;51.10
1103;DHT22;538;42.654;23.376;2023-02-25T01:22:01;7.60;50.60
1103;DHT22;538;42.654;23.376;2023-02-25T01:24:29;7.60;50.50
1103;DHT22;538;42.654;23.376;2023-02-25T01:26:59;7.50;50.40
1103;DHT22;538;42.654;23.376;2023-02-25T01:29:28;7.60;50.20
1103;DHT22;538;42.654;23.376;2023-02-25T01:31:58;7.60;49.90
1103;DHT22;538;42.654;23.376;2023-02-25T01:34:26;7.60;49.90
1103;DHT22;538;42.654;23.376;2023-02-25T01:36:54;7.60;48.90
1103;DHT22;538;42.654;23.376;2023-02-25T01:39:23;7.60;48.90
1103;DHT22;538;42.654;23.376;2023-02-25T01:41:50;7.60;48.30
1103;DHT22;538;42.654;23.376;2023-02-25T01:44:20;7.60;48.00
1103;DHT22;538;42.654;23.376;2023-02-25T01:46:48;7.60;46.30
1103;DHT22;538;42.654;23.376;2023-02-25T01:49:19;7.60;46.80
1103;DHT22;538;42.654;23.376;2023-02-25T01:51:50;7.60;47.30
1103;DHT22;538;42.654;23.376;2023-02-25T01:54:19;7.50;48.00
1103;DHT22;538;42.654;23.376;2023-02-25T01:56:49;7.60;48.10
1103;DHT22;538;42.654;23.376;2023-02-25T01:59:17;7.50;48.40
1103;DHT22;538;42.654;23.376;2023-02-25T02:01:45;7.50;48.80
1103;DHT22;538;42.654;23.376;2023-02-25T02:04:13;7.40;50.10
1103;DHT22;538;42.654;23.376;2023-02-25T02:06:45;7.50;50.30
1103;DHT22;538;42.654;23.376;2023-02-25T02:09:14;7.50;49.50
1103;DHT22;538;42.654;23.376;2023-02-25T02:11:41;7.60;49.30
1103;DHT22;538;42.654;23.376;2023-02-25T02:14:11;7.50;49.60
1103;DHT22;538;42.654;23.376;2023-02-25T02:19:47;7.50;50.70
1103;DHT22;538;42.654;23.376;2023-02-25T02:22:26;7.40;50.60
1103;DHT22;538;42.654;23.376;2023-02-25T02:25:13;7.50;50.20
1103;DHT22;538;42.654;23.376;2023-02-25T02:28:09;7.50;50.90
1103;DHT22;538;42.654;23.376;2023-02-25T02:31:07;7.50;49.70
1103;DHT22;538;42.654;23.376;2023-02-25T02:33:40;7.50;49.80
1103;DHT22;538;42.654;23.376;2023-02-25T02:36:18;7.50;50.70
1103;DHT22;538;42.654;23.376;2023-02-25T02:38:52;7.60;50.60
1103;DHT22;538;42.654;23.376;2023-02-25T02:41:25;7.60;50.50
1103;DHT22;538;42.654;23.376;2023-02-25T02:44:00;7.70;50.00
1103;DHT22;538;42.654;23.376;2023-02-25T02:46:33;7.80;50.00
1103;DHT22;538;42.654;23.376;2023-02-25T02:49:06;7.90;49.20
1103;DHT22;538;42.654;23.376;2023-02-25T02:51:38;7.90;48.40
1103;DHT22;538;42.654;23.376;2023-02-25T02:54:08;7.80;48.00
1103;DHT22;538;42.654;23.376;2023-02-25T02:56:39;7.80;48.50
1103;DHT22;538;42.654;23.376;2023-02-25T02:59:10;7.80;47.60
1103;DHT22;538;42.654;23.376;2023-02-25T03:01:43;7.80;47.60
1103;DHT22;538;42.654;23.376;2023-02-25T03:04:14;7.80;47.50
1103;DHT22;538;42.654;23.376;2023-02-25T03:06:45;7.80;46.30
1103;DHT22;538;42.654;23.376;2023-02-25T03:09:17;7.80;46.10
1103;DHT22;538;42.654;23.376;2023-02-25T03:11:45;7.60;46.40
1103;DHT22;538;42.654;23.376;2023-02-25T03:14:13;7.60;47.60
1103;DHT22;538;42.654;23.376;2023-02-25T03:16:46;7.60;47.40
1103;DHT22;538;42.654;23.376;2023-02-25T03:19:17;7.60;47.60
1103;DHT22;538;42.654;23.376;2023-02-25T03:21:47;7.50;48.50
1103;DHT22;538;42.654;23.376;2023-02-25T03:24:18;7.50;48.40
1103;DHT22;538;42.654;23.376;2023-02-25T03:26:47;7.60;48.30
1103;DHT22;538;42.654;23.376;2023-02-25T03:29:16;7.60;48.30
1103;DHT22;538;42.654;23.376;2023-02-25T03:31:49;7.60;47.40
1103;DHT22;538;42.654;23.376;2023-02-25T03:34:24;7.60;46.90
1103;DHT22;538;42.654;23.376;2023-02-25T03:36:56;7.40;48.00
1103;DHT22;538;42.654;23.376;2023-02-25T03:39:27;7.40;48.30
1103;DHT22;538;42.654;23.376;2023-02-25T03:41:56;7.40;49.00
1103;DHT22;538;42.654;23.376;2023-02-25T03:44:28;7.40;48.60
1103;DHT22;538;42.654;23.376;2023-02-25T03:46:59;7.30;48.90
1103;DHT22;538;42.654;23.376;2023-02-25T03:49:30;7.30;49.20
1103;DHT22;538;42.654;23.376;2023-02-25T03:52:02;7.40;48.80
1103;DHT22;538;42.654;23.376;2023-02-25T03:54:30;7.40;48.40
1103;DHT22;538;42.654;23.376;2023-02-25T03:56:57;7.30;48.70
1103;DHT22;538;42.654;23.376;2023-02-25T03:59:24;7.30;49.00
1103;DHT22;538;42.654;23.376;2023-02-25T04:01:53;7.20;48.90
1103;DHT22;538;42.654;23.376;2023-02-25T04:04:23;7.20;49.40
1103;DHT22;538;42.654;23.376;2023-02-25T04:06:50;7.20;49.90
1103;DHT22;538;42.654;23.376;2023-02-25T04:09:17;7.20;49.50
1103;DHT22;538;42.654;23.376;2023-02-25T04:11:44;7.20;48.80
1103;DHT22;538;42.654;23.376;2023-02-25T04:14:13;7.20;48.40
1103;DHT22;538;42.654;23.376;2023-02-25T04:16:40;7.20;48.40
1103;DHT22;538;42.654;23.376;2023-02-25T04:19:07;7.10;48.30
1103;DHT22;538;42.654;23.376;2023-02-25T04:21:36;6.90;49.30
1103;DHT22;538;42.654;23.376;2023-02-25T04:24:04;6.90;50.30
1103;DHT22;538;42.654;23.376;2023-02-25T04:26:32;7.00;49.90
1103;DHT22;538;42.654;23.376;2023-02-25T04:28:59;7.00;50.00
1103;DHT22;538;42.654;23.376;2023-02-25T04:31:26;6.90;50.50
1103;DHT22;538;42.654;23.376;2023-02-25T04:33:53;7.00;50.40
1103;DHT22;538;42.654;23.376;2023-02-25T04:36:24;6.90;51.50
1103;DHT22;538;42.654;23.376;2023-02-25T04:38:54;6.80;53.10
1103;DHT22;538;42.654;23.376;2023-02-25T04:41:21;6.80;53.50
1103;DHT22;538;42.654;23.376;2023-02-25T04:43:48;6.70;54.20
1103;DHT22;538;42.654;23.376;2023-02-25T04:46:16;6.60;55.20
1103;DHT22;538;42.654;23.376;2023-02-25T04:48:43;6.70;55.70
1103;DHT22;538;42.654;23.376;2023-02-25T04:51:10;6.80;55.20
1103;DHT22;538;42.654;23.376;2023-02-25T04:53:37;6.80;54.50
1103;DHT22;538;42.654;23.376;2023-02-25T04:56:07;6.80;53.60
1103;DHT22;538;42.654;23.376;2023-02-25T04:58:35;6.80;53.20
1103;DHT22;538;42.654;23.376;2023-02-25T05:01:04;6.80;53.20
1103;DHT22;538;42.654;23.376;2023-02-25T05:03:32;6.70;53.50
1103;DHT22;538;42.654;23.376;2023-02-25T05:05:59;6.80;53.60
1103;DHT22;538;42.654;23.376;2023-02-25T05:08:26;6.70;53.50
1103;DHT22;538;42.654;23.376;2023-02-25T05:10:54;6.60;54.60
1103;DHT22;538;42.654;23.376;2023-02-25T05:13:22;6.60;56.10
1103;DHT22;538;42.654;23.376;2023-02-25T05:15:49;6.70;54.50
1103;DHT22;538;42.654;23.376;2023-02-25T05:18:16;6.60;53.40
1103;DHT22;538;42.654;23.376;2023-02-25T05:20:45;6.60;55.40
1103;DHT22;538;42.654;23.376;2023-02-25T05:23:13;6.70;56.70
1103;DHT22;538;42.654;23.376;2023-02-25T05:25:39;6.70;57.20
1103;DHT22;538;42.654;23.376;2023-02-25T05:28:07;6.70;57.30
1103;DHT22;538;42.654;23.376;2023-02-25T05:30:37;6.70;57.30
1103;DHT22;538;42.654;23.376;2023-02-25T05:33:05;6.70;57.90
1103;DHT22;538;42.654;23.376;2023-02-25T05:35:33;6.70;59.40
1103;DHT22;538;42.654;23.376;2023-02-25T05:38:01;6.80;59.10
1103;DHT22;538;42.654;23.376;2023-02-25T05:40:27;6.80;58.20
1103;DHT22;538;42.654;23.376;2023-02-25T05:42:54;6.80;57.80
1103;DHT22;538;42.654;23.376;2023-02-25T05:45:21;6.80;56.80
1103;DHT22;538;42.654;23.376;2023-02-25T05:47:50;6.80;54.40
1103;DHT22;538;42.654;23.376;2023-02-25T05:50:17;6.80;52.70
1103;DHT22;538;42.654;23.376;2023-02-25T05:52:44;6.70;54.50
1103;DHT22;538;42.654;23.376;2023-02-25T05:55:12;6.70;57.80
1103;DHT22;538;42.654;23.376;2023-02-25T05:57:40;6.80;57.80
1103;DHT22;538;42.654;23.376;2023-02-25T06:00:08;6.90;57.00
1103;DHT22;538;42.654;23.376;2023-02-25T06:02:39;6.90;57.50
1103;DHT22;538;42.654;23.376;2023-02-25T06:05:08;7.00;58.90
1103;DHT22;538;42.654;23.376;2023-02-25T06:07:35;7.20;58.40
1103;DHT22;538;42.654;23.376;2023-02-25T06:10:03;7.30;58.30
1103;DHT22;538;42.654;23.376;2023-02-25T06:12:32;7.50;57.00
1103;DHT22;538;42.654;23.376;2023-02-25T06:15:02;7.50;55.10
1103;DHT22;538;42.654;23.376;2023-02-25T06:17:29;7.50;53.60
1103;DHT22;538;42.654;23.376;2023-02-25T06:19:57;7.60;52.90
1103;DHT22;538;42.654;23.376;2023-02-25T06:22:27;7.70;53.10
1103;DHT22;538;42.654;23.376;2023-02-25T06:24:54;7.90;52.00
1103;DHT22;538;42.654;23.376;2023-02-25T06:27:21;8.00;50.80
1103;DHT22;538;42.654;23.376;2023-02-25T06:29:48;8.10;50.50
1103;DHT22;538;42.654;23.376;2023-02-25T06:32:16;8.20;48.10
1103;DHT22;538;42.654;23.376;2023-02-25T06:34:44;8.20;46.80
1103;DHT22;538;42.654;23.376;2023-02-25T06:37:11;8.20;46.80
1103;DHT22;538;42.654;23.376;2023-02-25T06:39:39;8.30;46.80
1103;DHT22;538;42.654;23.376;2023-02-25T06:42:08;8.40;46.10
1103;DHT22;538;42.654;23.376;2023-02-25T06:44:35;8.50;46.20
1103;DHT22;538;42.654;23.376;2023-02-25T06:47:02;8.60;46.00
1103;DHT22;538;42.654;23.376;2023-02-25T06:49:29;8.80;43.60
1103;DHT22;538;42.654;23.376;2023-02-25T06:51:56;8.90;42.10
1103;DHT22;538;42.654;23.376;2023-02-25T06:54:23;9.00;38.80
1103;DHT22;538;42.654;23.376;2023-02-25T06:56:51;9.00;38.50
1103;DHT22;538;42.654;23.376;2023-02-25T06:59:19;9.20;37.80
1103;DHT22;538;42.654;23.376;2023-02-25T07:01:46;9.30;35.60
1103;DHT22;538;42.654;23.376;2023-02-25T07:04:15;9.40;35.20
1103;DHT22;538;42.654;23.376;2023-02-25T07:06:42;9.50;34.30
1103;DHT22;538;42.654;23.376;2023-02-25T07:09:09;9.50;33.40
1103;DHT22;538;42.654;23.376;2023-02-25T07:11:36;9.60;31.90
1103;DHT22;538;42.654;23.376;2023-02-25T07:14:05;9.70;30.50
1103;DHT22;538;42.654;23.376;2023-02-25T07:16:32;9.90;30.60
1103;DHT22;538;42.654;23.376;2023-02-25T07:19:00;10.10;29.60
1103;DHT22;538;42.654;23.376;2023-02-25T07:21:28;10.30;29.10
1103;DHT22;538;42.654;23.376;2023-02-25T07:23:56;10.50;29.00
1103;DHT22;538;42.654;23.376;2023-02-25T07:26:23;10.70;27.50
1103;DHT22;538;42.654;23.376;2023-02-25T07:28:53;10.70;26.70
1103;DHT22;538;42.654;23.376;2023-02-25T07:31:23;10.90;26.70
1103;DHT22;538;42.654;23.376;2023-02-25T07:33:50;11.10;25.30
1103;DHT22;538;42.654;23.376;2023-02-25T07:36:18;11.20;24.50
1103;DHT22;538;42.654;23.376;2023-02-25T07:38:45;11.30;24.20
1103;DHT22;538;42.654;23.376;2023-02-25T07:41:14;11.40;23.60
1103;DHT22;538;42.654;23.376;2023-02-25T07:43:42;11.60;21.90
1103;DHT22;538;42.654;23.376;2023-02-25T07:46:09;11.60;20.80
1103;DHT22;538;42.654;23.376;2023-02-25T07:48:39;11.60;21.80
1103;DHT22;538;42.654;23.376;2023-02-25T07:51:07;11.70;22.20
1103;DHT22;538;42.654;23.376;2023-02-25T07:53:35;11.80;22.10
1103;DHT22;538;42.654;23.376;2023-02-25T07:56:03;11.90;21.40
1103;DHT22;538;42.654;23.376;2023-02-25T07:58:31;12.10;21.20
1103;DHT22;538;42.654;23.376;2023-02-25T08:00:58;12.30;20.50
1103;DHT22;538;42.654;23.376;2023-02-25T08:03:27;12.50;20.00
1103;DHT22;538;42.654;23.376;2023-02-25T08:05:56;12.70;19.30
1103;DHT22;538;42.654;23.376;2023-02-25T08:08:29;12.80;18.80
1103;DHT22;538;42.654;23.376;2023-02-25T08:11:03;13.10;18.30
1103;DHT22;538;42.654;23.376;2023-02-25T08:13:34;13.20;16.90
1103;DHT22;538;42.654;23.376;2023-02-25T08:16:03;13.30;16.60
1103;DHT22;538;42.654;23.376;2023-02-25T08:18:31;13.40;16.20
1103;DHT22;538;42.654;23.376;2023-02-25T08:21:00;13.50;15.90
1103;DHT22;538;42.654;23.376;2023-02-25T08:23:27;13.70;15.70
1103;DHT22;538;42.654;23.376;2023-02-25T08:25:56;13.90;15.10
1103;DHT22;538;42.654;23.376;2023-02-25T08:28:25;14.10;15.00
1103;DHT22;538;42.654;23.376;2023-02-25T08:30:53;14.30;14.90
1103;DHT22;538;42.654;23.376;2023-02-25T08:33:21;14.40;13.90
1103;DHT22;538;42.654;23.376;2023-02-25T08:35:48;14.60;12.80
1103;DHT22;538;42.654;23.376;2023-02-25T08:38:17;14.60;12.80
1103;DHT22;538;42.654;23.376;2023-02-25T08:40:44;14.60;12.80
1103;DHT22;538;42.654;23.376;2023-02-25T08:43:11;14.60;12.80
1103;DHT22;538;42.654;23.376;2023-02-25T08:45:40;14.60;13.30
1103;DHT22;538;42.654;23.376;2023-02-25T08:48:07;14.70;12.50
1103;DHT22;538;42.654;23.376;2023-02-25T08:50:34;14.60;12.80
1103;DHT22;538;42.654;23.376;2023-02-25T08:53:01;14.50;12.70
1103;DHT22;538;42.654;23.376;2023-02-25T08:55:30;14.60;12.90
1103;DHT22;538;42.654;23.376;2023-02-25T08:58:00;14.70;12.90
1103;DHT22;538;42.654;23.376;2023-02-25T09:00:27;14.60;12.30
1103;DHT22;538;42.654;23.376;2023-02-25T09:02:55;14.70;12.20
1103;DHT22;538;42.654;23.376;2023-02-25T09:05:21;14.60;12.00
1103;DHT22;538;42.654;23.376;2023-02-25T09:07:49;14.50;12.40
1103;DHT22;538;42.654;23.376;2023-02-25T09:10:17;14.50;12.70
1103;DHT22;538;42.654;23.376;2023-02-25T09:12:46;14.50;12.70
1103;DHT22;538;42.654;23.376;2023-02-25T09:15:14;14.60;12.80
1103;DHT22;538;42.654;23.376;2023-02-25T09:17:41;14.60;12.80
1103;DHT22;538;42.654;23.376;2023-02-25T09:20:09;14.60;12.80
1103;DHT22;538;42.654;23.376;2023-02-25T09:22:37;14.60;12.80
1103;DHT22;538;42.654;23.376;2023-02-25T09:25:06;14.50;13.30
1103;DHT22;538;42.654;23.376;2023-02-25T09:27:33;14.30;13.80
1103;DHT22;538;42.654;23.376;2023-02-25T09:30:03;14.20;14.00
1103;DHT22;538;42.654;23.376;2023-02-25T09:32:30;14.10;14.30
1103;DHT22;538;42.654;23.376;2023-02-25T09:34:57;14.00;14.40
1103;DHT22;538;42.654;23.376;2023-02-25T09:37:31;13.90;14.80
1103;DHT22;538;42.654;23.376;2023-02-25T09:39:58;13.90;14.80
1103;DHT22;538;42.654;23.376;2023-02-25T09:42:27;13.80;15.50
1103;DHT22;538;42.654;23.376;2023-02-25T09:44:58;13.70;15.40
1103;DHT22;538;42.654;23.376;2023-02-25T09:47:34;13.60;16.60
1103;DHT22;538;42.654;23.376;2023-02-25T09:50:07;13.50;16.00
1103;DHT22;538;42.654;23.376;2023-02-25T09:52:39;13.50;16.60
1103;DHT22;538;42.654;23.376;2023-02-25T09:55:15;13.60;16.80
1103;DHT22;538;42.654;23.376;2023-02-25T09:57:52;13.60;16.90
1103;DHT22;538;42.654;23.376;2023-02-25T10:00:22;13.70;16.10
1103;DHT22;538;42.654;23.376;2023-02-25T10:02:54;13.70;16.10
1103;DHT22;538;42.654;23.376;2023-02-25T10:05:26;13.70;16.10
1103;DHT22;538;42.654;23.376;2023-02-25T10:08:07;13.80;16.10
1103;DHT22;538;42.654;23.376;2023-02-25T10:10:42;13.80;16.10
1103;DHT22;538;42.654;23.376;2023-02-25T10:13:21;13.70;15.70
1103;DHT22;538;42.654;23.376;2023-02-25T10:15:55;13.70;15.60
1103;DHT22;538;42.654;23.376;2023-02-25T10:18:49;13.70;15.60
1103;DHT22;538;42.654;23.376;2023-02-25T10:21:26;13.70;15.60
1103;DHT22;538;42.654;23.376;2023-02-25T10:24:07;13.60;15.20
1103;DHT22;538;42.654;23.376;2023-02-25T10:26:41;13.60;15.30
1103;DHT22;538;42.654;23.376;2023-02-25T10:29:12;13.70;15.50
1103;DHT22;538;42.654;23.376;2023-02-25T10:31:42;13.80;15.10
1103;DHT22;538;42.654;23.376;2023-02-25T10:34:20;14.00;15.00
1103;DHT22;538;42.654;23.376;2023-02-25T10:36:51;14.10;14.90
1103;DHT22;538;42.654;23.376;2023-02-25T10:39:19;14.10;14.10
1103;DHT22;538;42.654;23.376;2023-02-25T10:41:46;14.20;13.30
1103;DHT22;538;42.654;23.376;2023-02-25T10:44:14;14.30;13.20
1103;DHT22;538;42.654;23.376;2023-02-25T10:46:47;14.40;12.70
1103;DHT22;538;42.654;23.376;2023-02-25T10:49:18;14.60;12.80
1103;DHT22;538;42.654;23.376;2023-02-25T10:51:58;14.60;12.80
1103;DHT22;538;42.654;23.376;2023-02-25T10:54:28;14.70;12.10
1103;DHT22;538;42.654;23.376;2023-02-25T10:56:56;14.80;11.80
1103;DHT22;538;42.654;23.376;2023-02-25T10:59:33;14.80;11.70
1103;DHT22;538;42.654;23.376;2023-02-25T11:02:01;14.90;11.20
1103;DHT22;538;42.654;23.376;2023-02-25T11:04:35;14.90;11.20
1103;DHT22;538;42.654;23.376;2023-02-25T11:07:22;14.90;11.00
1103;DHT22;538;42.654;23.376;2023-02-25T11:10:10;15.00;10.60
1103;DHT22;538;42.654;23.376;2023-02-25T11:12:41;15.00;10.50
1103;DHT22;538;42.654;23.376;2023-02-25T11:15:28;15.10;9.90
1103;DHT22;538;42.654;23.376;2023-02-25T11:17:59;15.30;10.00
1103;DHT22;538;42.654;23.376;2023-02-25T11:20:30;15.30;9.50
1103;DHT22;538;42.654;23.376;2023-02-25T11:22:58;15.40;9.40
1103;DHT22;538;42.654;23.376;2023-02-25T11:25:34;15.50;9.40
1103;DHT22;538;42.654;23.376;2023-02-25T11:28:02;15.60;9.10
1103;DHT22;538;42.654;23.376;2023-02-25T11:30:35;15.60;8.70
1103;DHT22;538;42.654;23.376;2023-02-25T11:33:07;15.60;8.90
1103;DHT22;538;42.654;23.376;2023-02-25T11:35:44;15.70;8.10
1103;DHT22;538;42.654;23.376;2023-02-25T11:38:15;15.70;7.70
1103;DHT22;538;42.654;23.376;2023-02-25T11:40:48;15.80;7.50
1103;DHT22;538;42.654;23.376;2023-02-25T11:43:18;15.80;7.10
1103;DHT22;538;42.654;23.376;2023-02-25T11:45:49;15.80;7.10
1103;DHT22;538;42.654;23.376;2023-02-25T11:48:18;16.00;7.20
1103;DHT22;538;42.654;23.376;2023-02-25T11:51:03;16.10;7.20
1103;DHT22;538;42.654;23.376;2023-02-25T11:53:48;16.20;6.90
1103;DHT22;538;42.654;23.376;2023-02-25T11:56:22;16.30;6.80
1103;DHT22;538;42.654;23.376;2023-02-25T11:59:01;16.40;6.90
1103;DHT22;538;42.654;23.376;2023-02-25T12:01:51;16.40;6.00
1103;DHT22;538;42.654;23.376;2023-02-25T12:04:51;16.50;5.60
1103;DHT22;538;42.654;23.376;2023-02-25T12:07:50;16.80;5.10
1103;DHT22;538;42.654;23.376;2023-02-25T12:10:41;16.80;4.80
1103;DHT22;538;42.654;23.376;2023-02-25T12:19:53;17.30;3.70
1103;DHT22;538;42.654;23.376;2023-02-25T12:22:59;17.20;3.40
1103;DHT22;538;42.654;23.376;2023-02-25T12:25:33;17.20;4.20
1103;DHT22;538;42.654;23.376;2023-02-25T12:28:42;17.30;3.60
1103;DHT22;538;42.654;23.376;2023-02-25T12:31:39;17.40;3.60
1103;DHT22;538;42.654;23.376;2023-02-25T12:34:43;17.60;3.30
1103;DHT22;538;42.654;23.376;2023-02-25T12:37:33;17.50;2.70
1103;DHT22;538;42.654;23.376;2023-02-25T12:40:47;17.50;2.80
1103;DHT22;538;42.654;23.376;2023-02-25T12:43:29;17.30;2.00
1103;DHT22;538;42.654;23.376;2023-02-25T12:46:19;17.40;1.10
1103;DHT22;538;42.654;23.376;2023-02-25T12:52:14;17.60;1.90
1103;DHT22;538;42.654;23.376;2023-02-25T12:55:09;17.70;1.80
1103;DHT22;538;42.654;23.376;2023-02-25T12:57:51;18.00;1.40
1103;DHT22;538;42.654;23.376;2023-02-25T13:00:45;18.10;1.30
1103;DHT22;538;42.654;23.376;2023-02-25T13:03:26;18.30;1.20
1103;DHT22;538;42.654;23.376;2023-02-25T13:06:31;18.50;1.00
1103;DHT22;538;42.654;23.376;2023-02-25T13:09:25;18.80;1.00
1103;DHT22;538;42.654;23.376;2023-02-25T13:12:09;19.10;1.00
1103;DHT22;538;42.654;23.376;2023-02-25T13:14:48;19.60;1.00
1103;DHT22;538;42.654;23.376;2023-02-25T13:17:31;19.70;1.00
1103;DHT22;538;42.654;23.376;2023-02-25T13:20:30;19.70;1.00
1103;DHT22;538;42.654;23.376;2023-02-25T13:29:04;19.90;1.00
1103;DHT22;538;42.654;23.376;2023-02-25T13:31:47;20.00;1.00
1103;DHT22;538;42.654;23.376;2023-02-25T13:34:27;19.80;1.00
1103;DHT22;538;42.654;23.376;2023-02-25T13:37:10;19.60;1.00
1103;DHT22;538;42.654;23.376;2023-02-25T13:39:49;19.40;1.00
1103;DHT22;538;42.654;23.376;2023-02-25T13:42:35;19.40;1.00
1103;DHT22;538;42.654;23.376;2023-02-25T13:45:32;19.20;1.00
1103;DHT22;538;42.654;23.376;2023-02-25T13:51:24;18.80;1.00
1103;DHT22;538;42.654;23.376;2023-02-25T13:54:18;18.80;1.00
1103;DHT22;538;42.654;23.376;2023-02-25T13:56:55;18.70;1.00
1103;DHT22;538;42.654;23.376;2023-02-25T13:59:51;18.60;1.00
1103;DHT22;538;42.654;23.376;2023-02-25T14:02:40;18.60;1.00
1103;DHT22;538;42.654;23.376;2023-02-25T14:05:43;18.20;1.00
1103;DHT22;538;42.654;23.376;2023-02-25T14:08:32;17.90;1.00
1103;DHT22;538;42.654;23.376;2023-02-25T14:11:17;17.70;1.00
1103;DHT22;538;42.654;23.376;2023-02-25T14:14:02;17.70;1.00
1103;DHT22;538;42.654;23.376;2023-02-25T14:16:48;17.60;1.00
1103;DHT22;538;42.654;23.376;2023-02-25T14:19:29;17.50;1.00
1103;DHT22;538;42.654;23.376;2023-02-25T14:22:21;17.40;1.00
1103;DHT22;538;42.654;23.376;2023-02-25T14:24:55;17.40;1.00
1103;DHT22;538;42.654;23.376;2023-02-25T14:27:33;17.40;1.00
1103;DHT22;538;42.654;23.376;2023-02-25T14:30:17;17.40;1.00
1103;DHT22;538;42.654;23.376;2023-02-25T14:32:57;17.40;1.00
1103;DHT22;538;42.654;23.376;2023-02-25T14:35:49;17.50;1.00
1103;DHT22;538;42.654;23.376;2023-02-25T14:38:28;17.60;1.00
1103;DHT22;538;42.654;23.376;2023-02-25T14:41:17;17.80;1.00
1103;DHT22;538;42.654;23.376;2023-02-25T14:43:49;17.80;1.00
1103;DHT22;538;42.654;23.376;2023-02-25T14:46:29;17.80;1.00
1103;DHT22;538;42.654;23.376;2023-02-25T14:49:01;17.80;1.00
1103;DHT22;538;42.654;23.376;2023-02-25T14:52:11;17.80;1.00
1103;DHT22;538;42.654;23.376;2023-02-25T15:04:39;17.60;1.00
1103;DHT22;538;42.654;23.376;2023-02-25T15:07:19;17.70;1.00
1103;DHT22;538;42.654;23.376;2023-02-25T15:13:18;17.60;1.00
1103;DHT22;538;42.654;23.376;2023-02-25T15:16:14;17.60;1.00
1103;DHT22;538;42.654;23.376;2023-02-25T15:19:16;17.30;1.00
1103;DHT22;538;42.654;23.376;2023-02-25T15:21:48;17.20;1.00
1103;DHT22;538;42.654;23.376;2023-02-25T15:24:36;17.20;1.00
1103;DHT22;538;42.654;23.376;2023-02-25T15:27:32;17.00;1.00
1103;DHT22;538;42.654;23.376;2023-02-25T15:30:07;17.00;1.00
1103;DHT22;538;42.654;23.376;2023-02-25T15:32:56;17.00;1.00
1103;DHT22;538;42.654;23.376;2023-02-25T15:35:55;16.90;1.00
1103;DHT22;538;42.654;23.376;2023-02-25T15:41:40;16.80;1.00
1103;DHT22;538;42.654;23.376;2023-02-25T15:44:40;16.80;1.20
1103;DHT22;538;42.654;23.376;2023-02-25T15:47:31;16.80;1.30
1103;DHT22;538;42.654;23.376;2023-02-25T15:49:59;16.70;1.40
1103;DHT22;538;42.654;23.376;2023-02-25T15:52:49;16.60;1.60
1103;DHT22;538;42.654;23.376;2023-02-25T15:55:34;16.50;1.80
1103;DHT22;538;42.654;23.376;2023-02-25T15:58:55;16.40;1.90
1103;DHT22;538;42.654;23.376;2023-02-25T16:01:37;16.50;2.00
1103;DHT22;538;42.654;23.376;2023-02-25T16:04:46;16.40;1.90
1103;DHT22;538;42.654;23.376;2023-02-25T16:07:18;16.30;2.30
1103;DHT22;538;42.654;23.376;2023-02-25T16:09:50;16.20;2.40
1103;DHT22;538;42.654;23.376;2023-02-25T16:12:19;16.20;2.50
1103;DHT22;538;42.654;23.376;2023-02-25T16:14:49;16.10;2.50
1103;DHT22;538;42.654;23.376;2023-02-25T16:17:19;16.00;2.50
1103;DHT22;538;42.654;23.376;2023-02-25T16:19:50;16.00;2.60
1103;DHT22;538;42.654;23.376;2023-02-25T16:22:21;15.90;3.10
1103;DHT22;538;42.654;23.376;2023-02-25T16:24:50;15.90;2.70
1103;DHT22;538;42.654;23.376;2023-02-25T16:27:35;15.90;2.70
1103;DHT22;538;42.654;23.376;2023-02-25T16:30:14;15.80;2.80
1103;DHT22;538;42.654;23.376;2023-02-25T16:32:48;15.80;2.90
1103;DHT22;538;42.654;23.376;2023-02-25T16:35:23;15.80;2.80
1103;DHT22;538;42.654;23.376;2023-02-25T16:37:57;15.80;2.90
1103;DHT22;538;42.654;23.376;2023-02-25T16:40:30;15.80;3.00
1103;DHT22;538;42.654;23.376;2023-02-25T16:43:00;15.80;3.10
1103;DHT22;538;42.654;23.376;2023-02-25T16:45:32;15.80;2.90
1103;DHT22;538;42.654;23.376;2023-02-25T16:48:03;15.80;3.00
1103;DHT22;538;42.654;23.376;2023-02-25T16:50:31;15.80;3.00
1103;DHT22;538;42.654;23.376;2023-02-25T16:53:01;15.80;3.00
1103;DHT22;538;42.654;23.376;2023-02-25T16:55:35;15.80;3.00
1103;DHT22;538;42.654;23.376;2023-02-25T16:58:17;15.80;3.20
1103;DHT22;538;42.654;23.376;2023-02-25T17:00:52;15.80;3.10
1103;DHT22;538;42.654;23.376;2023-02-25T17:03:22;15.70;3.10
1103;DHT22;538;42.654;23.376;2023-02-25T17:06:13;15.70;3.30
1103;DHT22;538;42.654;23.376;2023-02-25T17:08:50;15.70;3.40
1103;DHT22;538;42.654;23.376;2023-02-25T17:11:20;15.70;3.10
1103;DHT22;538;42.654;23.376;2023-02-25T17:13:49;15.80;3.20
1103;DHT22;538;42.654;23.376;2023-02-25T17:16:21;15.70;3.20
1103;DHT22;538;42.654;23.376;2023-02-25T17:18:55;15.80;3.10
1103;DHT22;538;42.654;23.376;2023-02-25T17:21:25;15.80;2.90
1103;DHT22;538;42.654;23.376;2023-02-25T17:23:54;15.70;3.00
1103;DHT22;538;42.654;23.376;2023-02-25T17:26:22;15.70;3.50
1103;DHT22;538;42.654;23.376;2023-02-25T17:28:51;15.70;3.40
1103;DHT22;538;42.654;23.376;2023-02-25T17:31:22;15.80;3.50
1103;DHT22;538;42.654;23.376;2023-02-25T17:33:53;15.80;3.30